Hancock, Maryland
Current Conditions -  °F | °C
As of 7:53 PM on Friday 19 Dec 2014 (Local Time) from KMRB Reporting Station
Scattered Clouds Scattered Clouds  
Wind Chill: 32°   Ceiling: Unl
Heat Index: 32°   Visibility: 10mi
Dew Point: 19°   Wind: 3mph
Humidity: 59%   Direction: 320°NW
Pressure: 30.23"   Gusts: NA
Location:  39.7°N, 78.18°W
Report Text: KMRB 200053Z 32003KT 10SM SCT032 00/M07 A3023 RMK AO2 SLP243 T00001072
Loading
Personal Weather Stations






























Interactive Weather Map New forecast layout! Learn more

10-Day Weather Forecast

Advertisements
Track Severe Weather on mobile